sensor_id;sensor_type;location;lat;lon;timestamp;pressure;altitude;pressure_sealevel;temperature;humidity
39265;BME280;42646;51.910;7.724;2023-02-10T00:01:27;102852.94;;;3.20;95.13
39265;BME280;42646;51.910;7.724;2023-02-10T00:03:56;102850.22;;;3.24;94.84
39265;BME280;42646;51.910;7.724;2023-02-10T00:06:26;102854.56;;;3.25;95.46
39265;BME280;42646;51.910;7.724;2023-02-10T00:08:55;102852.78;;;3.27;95.57
39265;BME280;42646;51.910;7.724;2023-02-10T00:11:27;102856.19;;;3.30;96.01
39265;BME280;42646;51.910;7.724;2023-02-10T00:14:14;102857.03;;;3.31;96.35
39265;BME280;42646;51.910;7.724;2023-02-10T00:16:42;102848.22;;;3.33;96.49
39265;BME280;42646;51.910;7.724;2023-02-10T00:19:10;102850.72;;;3.38;96.95
39265;BME280;42646;51.910;7.724;2023-02-10T00:21:38;102855.97;;;3.39;97.84
39265;BME280;42646;51.910;7.724;2023-02-10T00:24:06;102853.25;;;3.42;97.83
39265;BME280;42646;51.910;7.724;2023-02-10T00:26:36;102853.25;;;3.42;98.03
39265;BME280;42646;51.910;7.724;2023-02-10T00:29:04;102856.69;;;3.46;98.37
39265;BME280;42646;51.910;7.724;2023-02-10T00:31:32;102853.13;;;3.47;98.87
39265;BME280;42646;51.910;7.724;2023-02-10T00:33:59;102850.47;;;3.48;98.97
39265;BME280;42646;51.910;7.724;2023-02-10T00:36:27;102855.72;;;3.50;99.07
39265;BME280;42646;51.910;7.724;2023-02-10T00:38:56;102849.53;;;3.51;98.92
39265;BME280;42646;51.910;7.724;2023-02-10T00:41:25;102857.38;;;3.53;99.55
39265;BME280;42646;51.910;7.724;2023-02-10T00:43:55;102858.25;;;3.53;99.23
39265;BME280;42646;51.910;7.724;2023-02-10T00:46:22;102855.66;;;3.52;99.49
39265;BME280;42646;51.910;7.724;2023-02-10T00:48:50;102860.97;;;3.50;99.56
39265;BME280;42646;51.910;7.724;2023-02-10T00:51:18;102858.41;;;3.47;99.15
39265;BME280;42646;51.910;7.724;2023-02-10T00:53:46;102867.25;;;3.43;99.40
39265;BME280;42646;51.910;7.724;2023-02-10T00:56:16;102868.22;;;3.40;98.99
39265;BME280;42646;51.910;7.724;2023-02-10T00:58:44;102875.34;;;3.35;98.96
39265;BME280;42646;51.910;7.724;2023-02-10T01:01:14;102872.81;;;3.31;98.65
39265;BME280;42646;51.910;7.724;2023-02-10T01:03:41;102872.06;;;3.26;98.56
39265;BME280;42646;51.910;7.724;2023-02-10T01:06:11;102872.16;;;3.22;98.83
39265;BME280;42646;51.910;7.724;2023-02-10T01:08:40;102875.69;;;3.21;98.39
39265;BME280;42646;51.910;7.724;2023-02-10T01:11:10;102873.13;;;3.18;98.74
39265;BME280;42646;51.910;7.724;2023-02-10T01:13:39;102879.28;;;3.17;98.75
39265;BME280;42646;51.910;7.724;2023-02-10T01:16:09;102886.31;;;3.17;98.48
39265;BME280;42646;51.910;7.724;2023-02-10T01:18:42;102880.16;;;3.18;98.87
39265;BME280;42646;51.910;7.724;2023-02-10T01:21:12;102875.84;;;3.15;98.95
39265;BME280;42646;51.910;7.724;2023-02-10T01:23:43;102875.94;;;3.11;98.97
39265;BME280;42646;51.910;7.724;2023-02-10T01:26:12;102887.38;;;3.08;99.39
39265;BME280;42646;51.910;7.724;2023-02-10T01:28:41;102893.66;;;3.03;99.10
39265;BME280;42646;51.910;7.724;2023-02-10T01:31:12;102883.25;;;2.98;98.84
39265;BME280;42646;51.910;7.724;2023-02-10T01:33:41;102883.34;;;2.93;98.93
39265;BME280;42646;51.910;7.724;2023-02-10T01:36:12;102890.41;;;2.91;99.05
39265;BME280;42646;51.910;7.724;2023-02-10T01:38:41;102888.00;;;2.81;99.37
39265;BME280;42646;51.910;7.724;2023-02-10T01:41:09;102889.06;;;2.72;99.58
39265;BME280;42646;51.910;7.724;2023-02-10T01:44:03;102889.19;;;2.66;99.42
39265;BME280;42646;51.910;7.724;2023-02-10T01:46:56;102888.53;;;2.56;99.62
39265;BME280;42646;51.910;7.724;2023-02-10T01:49:29;102893.06;;;2.50;99.28
39265;BME280;42646;51.910;7.724;2023-02-10T01:52:03;102899.31;;;2.42;99.59
39265;BME280;42646;51.910;7.724;2023-02-10T01:54:38;102901.19;;;2.36;99.42
39265;BME280;42646;51.910;7.724;2023-02-10T01:57:06;102896.97;;;2.29;99.64
39265;BME280;42646;51.910;7.724;2023-02-10T01:59:38;102888.31;;;2.24;99.46
39265;BME280;42646;51.910;7.724;2023-02-10T02:02:07;102892.72;;;2.22;99.82
39265;BME280;42646;51.910;7.724;2023-02-10T02:04:40;102884.06;;;2.17;100.00
39265;BME280;42646;51.910;7.724;2023-02-10T02:07:12;102889.56;;;2.04;100.00
39265;BME280;42646;51.910;7.724;2023-02-10T02:09:44;102895.88;;;1.96;100.00
39265;BME280;42646;51.910;7.724;2023-02-10T02:12:19;102891.59;;;1.90;100.00
39265;BME280;42646;51.910;7.724;2023-02-10T02:14:57;102891.69;;;1.84;100.00
39265;BME280;42646;51.910;7.724;2023-02-10T02:17:33;102894.41;;;1.79;100.00
39265;BME280;42646;51.910;7.724;2023-02-10T02:23:26;102903.31;;;1.69;100.00
39265;BME280;42646;51.910;7.724;2023-02-10T02:26:15;102897.25;;;1.66;100.00
39265;BME280;42646;51.910;7.724;2023-02-10T02:29:05;102898.16;;;1.63;100.00
39265;BME280;42646;51.910;7.724;2023-02-10T02:31:58;102912.25;;;1.57;100.00
39265;BME280;42646;51.910;7.724;2023-02-10T02:34:35;102908.81;;;1.54;100.00
39265;BME280;42646;51.910;7.724;2023-02-10T02:37:09;102914.97;;;1.51;100.00
39265;BME280;42646;51.910;7.724;2023-02-10T02:39:43;102909.84;;;1.44;100.00
39265;BME280;42646;51.910;7.724;2023-02-10T02:42:20;102907.22;;;1.42;100.00
39265;BME280;42646;51.910;7.724;2023-02-10T02:44:51;102915.13;;;1.41;100.00
39265;BME280;42646;51.910;7.724;2023-02-10T02:47:29;102907.31;;;1.39;100.00
39265;BME280;42646;51.910;7.724;2023-02-10T02:50:12;102903.84;;;1.37;100.00
39265;BME280;42646;51.910;7.724;2023-02-10T02:53:03;102908.31;;;1.30;100.00
39265;BME280;42646;51.910;7.724;2023-02-10T02:55:44;102910.06;;;1.31;100.00
39265;BME280;42646;51.910;7.724;2023-02-10T02:58:18;102907.47;;;1.28;100.00
39265;BME280;42646;51.910;7.724;2023-02-10T03:00:49;102912.72;;;1.28;100.00
39265;BME280;42646;51.910;7.724;2023-02-10T03:03:27;102902.22;;;1.28;100.00
39265;BME280;42646;51.910;7.724;2023-02-10T03:05:58;102903.00;;;1.37;100.00
39265;BME280;42646;51.910;7.724;2023-02-10T03:08:28;102893.31;;;1.39;100.00
39265;BME280;42646;51.910;7.724;2023-02-10T03:11:22;102895.06;;;1.40;100.00
39265;BME280;42646;51.910;7.724;2023-02-10T03:13:53;102898.50;;;1.42;100.00
39265;BME280;42646;51.910;7.724;2023-02-10T03:16:21;102896.72;;;1.45;100.00
39265;BME280;42646;51.910;7.724;2023-02-10T03:18:51;102905.34;;;1.52;100.00
39265;BME280;42646;51.910;7.724;2023-02-10T03:21:20;102896.59;;;1.54;100.00
39265;BME280;42646;51.910;7.724;2023-02-10T03:23:49;102888.66;;;1.57;100.00
39265;BME280;42646;51.910;7.724;2023-02-10T03:26:17;102894.72;;;1.59;100.00
39265;BME280;42646;51.910;7.724;2023-02-10T03:28:46;102892.97;;;1.60;100.00
39265;BME280;42646;51.910;7.724;2023-02-10T03:31:13;102899.97;;;1.61;100.00
39265;BME280;42646;51.910;7.724;2023-02-10T03:33:44;102889.44;;;1.63;100.00
39265;BME280;42646;51.910;7.724;2023-02-10T03:36:14;102896.38;;;1.65;100.00
39265;BME280;42646;51.910;7.724;2023-02-10T03:38:46;102895.50;;;1.65;100.00
39265;BME280;42646;51.910;7.724;2023-02-10T03:41:15;102892.03;;;1.64;100.00
39265;BME280;42646;51.910;7.724;2023-02-10T03:43:43;102896.38;;;1.65;100.00
39265;BME280;42646;51.910;7.724;2023-02-10T03:46:11;102889.41;;;1.64;100.00
39265;BME280;42646;51.910;7.724;2023-02-10T03:48:39;102898.13;;;1.65;100.00
39265;BME280;42646;51.910;7.724;2023-02-10T03:51:14;102894.66;;;1.64;100.00
39265;BME280;42646;51.910;7.724;2023-02-10T03:53:44;102898.16;;;1.63;100.00
39265;BME280;42646;51.910;7.724;2023-02-10T03:56:12;102893.81;;;1.62;100.00
39265;BME280;42646;51.910;7.724;2023-02-10T03:58:41;102892.03;;;1.64;100.00
39265;BME280;42646;51.910;7.724;2023-02-10T04:01:12;102904.25;;;1.65;100.00
39265;BME280;42646;51.910;7.724;2023-02-10T04:03:40;102902.53;;;1.64;100.00
39265;BME280;42646;51.910;7.724;2023-02-10T04:06:10;102907.81;;;1.63;100.00
39265;BME280;42646;51.910;7.724;2023-02-10T04:08:40;102901.69;;;1.62;100.00
39265;BME280;42646;51.910;7.724;2023-02-10T04:11:32;102909.59;;;1.60;100.00
39265;BME280;42646;51.910;7.724;2023-02-10T04:14:00;102908.69;;;1.60;100.00
39265;BME280;42646;51.910;7.724;2023-02-10T04:16:30;102903.44;;;1.62;100.00
39265;BME280;42646;51.910;7.724;2023-02-10T04:19:02;102905.25;;;1.58;100.00
39265;BME280;42646;51.910;7.724;2023-02-10T04:21:31;102911.38;;;1.57;100.00
39265;BME280;42646;51.910;7.724;2023-02-10T04:24:00;102912.28;;;1.56;100.00
39265;BME280;42646;51.910;7.724;2023-02-10T04:26:31;102927.16;;;1.55;100.00
39265;BME280;42646;51.910;7.724;2023-02-10T04:28:59;102914.94;;;1.53;100.00
39265;BME280;42646;51.910;7.724;2023-02-10T04:31:29;102918.50;;;1.50;100.00
39265;BME280;42646;51.910;7.724;2023-02-10T04:33:58;102915.91;;;1.47;100.00
39265;BME280;42646;51.910;7.724;2023-02-10T04:36:25;102913.38;;;1.43;100.00
39265;BME280;42646;51.910;7.724;2023-02-10T04:38:53;102917.78;;;1.39;100.00
39265;BME280;42646;51.910;7.724;2023-02-10T04:41:22;102920.44;;;1.36;100.00
39265;BME280;42646;51.910;7.724;2023-02-10T04:43:50;102916.09;;;1.35;100.00
39265;BME280;42646;51.910;7.724;2023-02-10T04:46:20;102913.53;;;1.32;100.00
39265;BME280;42646;51.910;7.724;2023-02-10T04:48:49;102907.44;;;1.31;100.00
39265;BME280;42646;51.910;7.724;2023-02-10T04:51:20;102916.16;;;1.32;100.00
39265;BME280;42646;51.910;7.724;2023-02-10T04:53:48;102914.38;;;1.34;100.00
39265;BME280;42646;51.910;7.724;2023-02-10T04:56:16;102908.22;;;1.37;100.00
39265;BME280;42646;51.910;7.724;2023-02-10T04:58:45;102905.53;;;1.40;100.00
39265;BME280;42646;51.910;7.724;2023-02-10T05:01:13;102906.38;;;1.43;100.00
39265;BME280;42646;51.910;7.724;2023-02-10T05:03:41;102906.31;;;1.46;100.00
39265;BME280;42646;51.910;7.724;2023-02-10T05:06:14;102908.94;;;1.46;100.00
39265;BME280;42646;51.910;7.724;2023-02-10T05:08:42;102915.00;;;1.50;100.00
39265;BME280;42646;51.910;7.724;2023-02-10T05:11:13;102917.56;;;1.53;100.00
39265;BME280;42646;51.910;7.724;2023-02-10T05:13:42;102914.03;;;1.55;100.00
39265;BME280;42646;51.910;7.724;2023-02-10T05:16:13;102918.34;;;1.58;100.00
39265;BME280;42646;51.910;7.724;2023-02-10T05:18:44;102921.81;;;1.62;100.00
39265;BME280;42646;51.910;7.724;2023-02-10T05:21:13;102929.66;;;1.63;100.00
39265;BME280;42646;51.910;7.724;2023-02-10T05:23:42;102932.28;;;1.63;100.00
39265;BME280;42646;51.910;7.724;2023-02-10T05:26:12;102940.16;;;1.63;100.00
39265;BME280;42646;51.910;7.724;2023-02-10T05:28:42;102946.28;;;1.62;100.00
39265;BME280;42646;51.910;7.724;2023-02-10T05:31:12;102946.31;;;1.60;100.00
39265;BME280;42646;51.910;7.724;2023-02-10T05:33:40;102946.31;;;1.59;100.00
39265;BME280;42646;51.910;7.724;2023-02-10T05:36:08;102945.47;;;1.58;100.00
39265;BME280;42646;51.910;7.724;2023-02-10T05:38:39;102951.63;;;1.56;100.00
39265;BME280;42646;51.910;7.724;2023-02-10T05:41:27;102941.16;;;1.54;100.00
39265;BME280;42646;51.910;7.724;2023-02-10T05:44:01;102955.19;;;1.52;100.00
39265;BME280;42646;51.910;7.724;2023-02-10T05:46:31;102948.19;;;1.52;100.00
39265;BME280;42646;51.910;7.724;2023-02-10T05:48:59;102948.22;;;1.51;100.00
39265;BME280;42646;51.910;7.724;2023-02-10T05:51:27;102950.88;;;1.48;100.00
39265;BME280;42646;51.910;7.724;2023-02-10T05:53:55;102949.13;;;1.48;100.00
39265;BME280;42646;51.910;7.724;2023-02-10T05:56:23;102950.00;;;1.47;100.00
39265;BME280;42646;51.910;7.724;2023-02-10T05:58:54;102950.03;;;1.46;100.00
39265;BME280;42646;51.910;7.724;2023-02-10T06:01:22;102957.06;;;1.44;100.00
39265;BME280;42646;51.910;7.724;2023-02-10T06:03:52;102955.31;;;1.44;100.00
39265;BME280;42646;51.910;7.724;2023-02-10T06:06:19;102964.94;;;1.44;100.00
39265;BME280;42646;51.910;7.724;2023-02-10T06:08:50;102967.53;;;1.45;100.00
39265;BME280;42646;51.910;7.724;2023-02-10T06:11:18;102961.41;;;1.45;100.00
39265;BME280;42646;51.910;7.724;2023-02-10T06:13:46;102972.78;;;1.45;100.00
39265;BME280;42646;51.910;7.724;2023-02-10T06:16:17;102975.38;;;1.48;100.00
39265;BME280;42646;51.910;7.724;2023-02-10T06:18:45;102969.22;;;1.49;100.00
39265;BME280;42646;51.910;7.724;2023-02-10T06:21:41;102971.78;;;1.52;100.00
39265;BME280;42646;51.910;7.724;2023-02-10T06:24:10;102986.63;;;1.53;100.00
39265;BME280;42646;51.910;7.724;2023-02-10T06:26:41;102985.72;;;1.56;100.00
39265;BME280;42646;51.910;7.724;2023-02-10T06:29:33;102983.94;;;1.58;100.00
39265;BME280;42646;51.910;7.724;2023-02-10T06:32:03;102988.28;;;1.59;100.00
39265;BME280;42646;51.910;7.724;2023-02-10T06:34:30;102990.03;;;1.60;100.00
39265;BME280;42646;51.910;7.724;2023-02-10T06:36:59;102990.03;;;1.62;100.00
39265;BME280;42646;51.910;7.724;2023-02-10T06:39:27;102990.03;;;1.62;100.00
39265;BME280;42646;51.910;7.724;2023-02-10T06:41:59;102986.53;;;1.61;100.00
39265;BME280;42646;51.910;7.724;2023-02-10T06:44:27;102995.25;;;1.63;100.00
39265;BME280;42646;51.910;7.724;2023-02-10T06:46:59;102989.16;;;1.61;100.00
39265;BME280;42646;51.910;7.724;2023-02-10T06:49:27;102986.53;;;1.61;100.00
39265;BME280;42646;51.910;7.724;2023-02-10T06:52:24;102996.16;;;1.60;100.00
39265;BME280;42646;51.910;7.724;2023-02-10T06:54:54;102988.28;;;1.59;100.00
39265;BME280;42646;51.910;7.724;2023-02-10T06:57:23;102992.69;;;1.58;100.00
39265;BME280;42646;51.910;7.724;2023-02-10T06:59:53;102994.41;;;1.59;100.00
39265;BME280;42646;51.910;7.724;2023-02-10T07:02:21;102993.53;;;1.59;100.00
39265;BME280;42646;51.910;7.724;2023-02-10T07:04:49;102994.41;;;1.59;100.00
39265;BME280;42646;51.910;7.724;2023-02-10T07:07:21;102984.78;;;1.62;100.00
39265;BME280;42646;51.910;7.724;2023-02-10T07:09:53;102990.00;;;1.63;100.00
39265;BME280;42646;51.910;7.724;2023-02-10T07:12:20;102991.72;;;1.64;100.00
39265;BME280;42646;51.910;7.724;2023-02-10T07:14:49;102989.06;;;1.66;100.00
39265;BME280;42646;51.910;7.724;2023-02-10T07:17:17;102986.38;;;1.70;100.00
39265;BME280;42646;51.910;7.724;2023-02-10T07:19:45;102989.81;;;1.74;100.00
39265;BME280;42646;51.910;7.724;2023-02-10T07:22:13;102988.94;;;1.75;100.00
39265;BME280;42646;51.910;7.724;2023-02-10T07:24:42;102991.53;;;1.76;100.00
39265;BME280;42646;51.910;7.724;2023-02-10T07:27:14;102992.34;;;1.80;100.00
39265;BME280;42646;51.910;7.724;2023-02-10T07:29:41;102994.06;;;1.82;100.00
39265;BME280;42646;51.910;7.724;2023-02-10T07:32:38;103002.78;;;1.83;100.00
39265;BME280;42646;51.910;7.724;2023-02-10T07:35:08;103003.63;;;1.86;100.00
39265;BME280;42646;51.910;7.724;2023-02-10T07:37:36;103001.81;;;1.88;100.00
39265;BME280;42646;51.910;7.724;2023-02-10T07:40:05;102995.69;;;1.91;100.00
39265;BME280;42646;51.910;7.724;2023-02-10T07:42:35;103010.47;;;1.95;100.00
39265;BME280;42646;51.910;7.724;2023-02-10T07:45:24;103013.09;;;1.97;100.00
39265;BME280;42646;51.910;7.724;2023-02-10T07:47:52;103015.56;;;2.04;100.00
39265;BME280;42646;51.910;7.724;2023-02-10T07:50:20;103023.38;;;2.07;100.00
39265;BME280;42646;51.910;7.724;2023-02-10T07:52:51;103031.19;;;2.12;100.00
39265;BME280;42646;51.910;7.724;2023-02-10T07:55:19;103029.44;;;2.14;100.00
39265;BME280;42646;51.910;7.724;2023-02-10T07:57:51;103031.09;;;2.18;100.00
39265;BME280;42646;51.910;7.724;2023-02-10T08:00:19;103025.75;;;2.23;100.00
39265;BME280;42646;51.910;7.724;2023-02-10T08:02:48;103025.72;;;2.24;100.00
39265;BME280;42646;51.910;7.724;2023-02-10T08:05:18;103029.22;;;2.26;100.00
39265;BME280;42646;51.910;7.724;2023-02-10T08:07:51;103025.66;;;2.29;100.00
39265;BME280;42646;51.910;7.724;2023-02-10T08:10:20;103023.84;;;2.32;100.00
39265;BME280;42646;51.910;7.724;2023-02-10T08:12:53;103031.66;;;2.35;100.00
39265;BME280;42646;51.910;7.724;2023-02-10T08:15:20;103027.28;;;2.37;100.00
39265;BME280;42646;51.910;7.724;2023-02-10T08:17:50;103030.66;;;2.42;100.00
39265;BME280;42646;51.910;7.724;2023-02-10T08:20:18;103021.00;;;2.43;100.00
39265;BME280;42646;51.910;7.724;2023-02-10T08:22:46;103028.81;;;2.49;100.00
39265;BME280;42646;51.910;7.724;2023-02-10T08:25:15;103039.25;;;2.52;100.00
39265;BME280;42646;51.910;7.724;2023-02-10T08:27:43;103034.03;;;2.51;100.00
39265;BME280;42646;51.910;7.724;2023-02-10T08:30:13;103036.53;;;2.57;100.00
39265;BME280;42646;51.910;7.724;2023-02-10T08:32:41;103041.78;;;2.57;100.00
39265;BME280;42646;51.910;7.724;2023-02-10T08:35:09;103041.72;;;2.60;100.00
39265;BME280;42646;51.910;7.724;2023-02-10T08:37:38;103046.03;;;2.64;100.00
39265;BME280;42646;51.910;7.724;2023-02-10T08:40:06;103042.47;;;2.68;100.00
39265;BME280;42646;51.910;7.724;2023-02-10T08:42:34;103046.81;;;2.69;100.00
39265;BME280;42646;51.910;7.724;2023-02-10T08:45:03;103045.03;;;2.71;100.00
39265;BME280;42646;51.910;7.724;2023-02-10T08:47:33;103054.63;;;2.74;100.00
39265;BME280;42646;51.910;7.724;2023-02-10T08:50:02;103053.59;;;2.81;100.00
39265;BME280;42646;51.910;7.724;2023-02-10T08:52:30;103060.59;;;2.82;100.00
39265;BME280;42646;51.910;7.724;2023-02-10T08:54:58;103061.28;;;2.91;100.00
39265;BME280;42646;51.910;7.724;2023-02-10T08:57:28;103055.19;;;2.89;100.00
39265;BME280;42646;51.910;7.724;2023-02-10T08:59:59;103059.41;;;2.98;100.00
39265;BME280;42646;51.910;7.724;2023-02-10T09:02:27;103067.28;;;2.98;100.00
39265;BME280;42646;51.910;7.724;2023-02-10T09:04:56;103071.56;;;3.04;100.00
39265;BME280;42646;51.910;7.724;2023-02-10T09:07:35;103070.66;;;3.05;100.00
39265;BME280;42646;51.910;7.724;2023-02-10T09:10:03;103073.22;;;3.09;100.00
39265;BME280;42646;51.910;7.724;2023-02-10T09:12:35;103072.28;;;3.12;100.00
39265;BME280;42646;51.910;7.724;2023-02-10T09:15:03;103059.06;;;3.15;100.00
39265;BME280;42646;51.910;7.724;2023-02-10T09:17:33;103059.81;;;3.21;100.00
39265;BME280;42646;51.910;7.724;2023-02-10T09:20:02;103064.13;;;3.24;100.00
39265;BME280;42646;51.910;7.724;2023-02-10T09:22:32;103067.56;;;3.28;100.00
39265;BME280;42646;51.910;7.724;2023-02-10T09:25:04;103070.97;;;3.31;100.00
39265;BME280;42646;51.910;7.724;2023-02-10T09:27:33;103071.72;;;3.39;100.00
39265;BME280;42646;51.910;7.724;2023-02-10T09:30:01;103073.31;;;3.46;100.00
39265;BME280;42646;51.910;7.724;2023-02-10T09:32:30;103066.22;;;3.48;100.00
39265;BME280;42646;51.910;7.724;2023-02-10T09:34:59;103060.78;;;3.58;100.00
39265;BME280;42646;51.910;7.724;2023-02-10T09:37:30;103065.63;;;3.76;100.00
39265;BME280;42646;51.910;7.724;2023-02-10T09:39:57;103063.94;;;3.72;100.00
39265;BME280;42646;51.910;7.724;2023-02-10T09:42:30;103060.28;;;3.79;100.00
39265;BME280;42646;51.910;7.724;2023-02-10T09:45:11;103060.03;;;3.90;100.00
39265;BME280;42646;51.910;7.724;2023-02-10T09:47:48;103065.13;;;3.97;100.00
39265;BME280;42646;51.910;7.724;2023-02-10T09:53:12;103061.44;;;4.05;100.00
39265;BME280;42646;51.910;7.724;2023-02-10T09:55:43;103070.09;;;4.10;100.00
39265;BME280;42646;51.910;7.724;2023-02-10T09:58:21;103070.00;;;4.13;100.00
39265;BME280;42646;51.910;7.724;2023-02-10T10:00:54;103062.81;;;4.19;100.00
39265;BME280;42646;51.910;7.724;2023-02-10T10:03:52;103064.53;;;4.22;100.00
39265;BME280;42646;51.910;7.724;2023-02-10T10:06:26;103059.88;;;4.33;100.00
39265;BME280;42646;51.910;7.724;2023-02-10T10:09:03;103060.53;;;4.41;100.00
39265;BME280;42646;51.910;7.724;2023-02-10T10:11:40;103068.97;;;4.54;100.00
39265;BME280;42646;51.910;7.724;2023-02-10T10:14:17;103069.41;;;4.71;100.00
39265;BME280;42646;51.910;7.724;2023-02-10T10:17:00;103065.72;;;4.77;100.00
39265;BME280;42646;51.910;7.724;2023-02-10T10:19:44;103063.13;;;4.75;100.00
39265;BME280;42646;51.910;7.724;2023-02-10T10:22:37;103068.44;;;4.74;100.00
39265;BME280;42646;51.910;7.724;2023-02-10T10:25:20;103067.66;;;4.70;100.00
39265;BME280;42646;51.910;7.724;2023-02-10T10:28:01;103085.22;;;4.71;100.00
39265;BME280;42646;51.910;7.724;2023-02-10T10:30:42;103074.56;;;4.76;100.00
39265;BME280;42646;51.910;7.724;2023-02-10T10:33:24;103075.47;;;4.75;100.00
39265;BME280;42646;51.910;7.724;2023-02-10T10:36:00;103069.09;;;4.82;100.00
39265;BME280;42646;51.910;7.724;2023-02-10T10:38:30;103066.31;;;4.88;100.00
39265;BME280;42646;51.910;7.724;2023-02-10T10:41:03;103069.63;;;4.95;100.00
39265;BME280;42646;51.910;7.724;2023-02-10T10:43:39;103061.41;;;5.05;100.00
39265;BME280;42646;51.910;7.724;2023-02-10T10:46:13;103052.19;;;5.20;100.00
39265;BME280;42646;51.910;7.724;2023-02-10T10:48:42;103047.56;;;5.28;100.00
39265;BME280;42646;51.910;7.724;2023-02-10T10:51:11;103047.94;;;5.44;100.00
39265;BME280;42646;51.910;7.724;2023-02-10T10:53:42;103042.47;;;5.50;100.00
39265;BME280;42646;51.910;7.724;2023-02-10T10:56:21;103038.38;;;5.70;100.00
39265;BME280;42646;51.910;7.724;2023-02-10T10:58:51;103041.63;;;5.78;100.00
39265;BME280;42646;51.910;7.724;2023-02-10T11:01:31;103029.34;;;5.77;100.00
39265;BME280;42646;51.910;7.724;2023-02-10T11:04:05;103036.88;;;5.89;100.00
39265;BME280;42646;51.910;7.724;2023-02-10T11:06:35;103035.78;;;5.96;100.00
39265;BME280;42646;51.910;7.724;2023-02-10T11:09:07;103030.69;;;5.90;100.00
39265;BME280;42646;51.910;7.724;2023-02-10T11:11:45;103031.47;;;5.94;100.00
39265;BME280;42646;51.910;7.724;2023-02-10T11:14:14;103029.78;;;5.91;100.00
39265;BME280;42646;51.910;7.724;2023-02-10T11:16:45;103022.81;;;5.88;100.00
39265;BME280;42646;51.910;7.724;2023-02-10T11:19:21;103020.09;;;5.90;99.41
39265;BME280;42646;51.910;7.724;2023-02-10T11:21:50;103024.41;;;5.94;98.79
39265;BME280;42646;51.910;7.724;2023-02-10T11:24:23;103012.00;;;5.96;98.04
39265;BME280;42646;51.910;7.724;2023-02-10T11:26:57;103010.03;;;6.03;97.13
39265;BME280;42646;51.910;7.724;2023-02-10T11:29:26;103007.66;;;5.95;97.05
39265;BME280;42646;51.910;7.724;2023-02-10T11:31:55;103013.94;;;5.91;97.63
39265;BME280;42646;51.910;7.724;2023-02-10T11:34:31;103003.28;;;5.94;98.10
39265;BME280;42646;51.910;7.724;2023-02-10T11:37:10;103007.59;;;5.97;98.78
39265;BME280;42646;51.910;7.724;2023-02-10T11:39:40;103001.34;;;5.99;98.11
39265;BME280;42646;51.910;7.724;2023-02-10T11:42:18;103007.38;;;6.03;97.43
39265;BME280;42646;51.910;7.724;2023-02-10T11:44:54;103002.75;;;6.09;97.25
39265;BME280;42646;51.910;7.724;2023-02-10T11:47:27;103008.91;;;6.10;96.58
39265;BME280;42646;51.910;7.724;2023-02-10T11:49:58;103004.38;;;6.13;96.84
39265;BME280;42646;51.910;7.724;2023-02-10T11:52:28;103002.34;;;6.22;96.68
39265;BME280;42646;51.910;7.724;2023-02-10T11:55:00;103001.91;;;6.34;95.82
39265;BME280;42646;51.910;7.724;2023-02-10T11:57:39;102993.09;;;6.35;95.49
39265;BME280;42646;51.910;7.724;2023-02-10T12:00:35;102993.97;;;6.34;95.22
39265;BME280;42646;51.910;7.724;2023-02-10T12:03:45;102990.44;;;6.35;93.59
39265;BME280;42646;51.910;7.724;2023-02-10T12:06:21;102987.47;;;6.44;92.00
39265;BME280;42646;51.910;7.724;2023-02-10T12:09:11;102977.22;;;6.35;92.09
39265;BME280;42646;51.910;7.724;2023-02-10T12:11:54;102982.44;;;6.36;92.35
39265;BME280;42646;51.910;7.724;2023-02-10T12:14:40;102979.75;;;6.38;92.27
39265;BME280;42646;51.910;7.724;2023-02-10T12:17:24;102970.88;;;6.40;91.65
39265;BME280;42646;51.910;7.724;2023-02-10T12:20:07;102972.53;;;6.43;91.05
39265;BME280;42646;51.910;7.724;2023-02-10T12:22:57;102964.59;;;6.43;90.92
39265;BME280;42646;51.910;7.724;2023-02-10T12:25:37;102956.78;;;6.63;89.90
39265;BME280;42646;51.910;7.724;2023-02-10T12:28:13;102950.00;;;6.56;89.76
39265;BME280;42646;51.910;7.724;2023-02-10T12:30:49;102949.44;;;6.48;90.64
39265;BME280;42646;51.910;7.724;2023-02-10T12:33:48;102947.66;;;6.49;90.55
39265;BME280;42646;51.910;7.724;2023-02-10T12:36:24;102957.00;;;6.57;89.69
39265;BME280;42646;51.910;7.724;2023-02-10T12:39:05;102943.78;;;6.57;88.83
39265;BME280;42646;51.910;7.724;2023-02-10T12:41:46;102941.50;;;6.48;89.91
39265;BME280;42646;51.910;7.724;2023-02-10T12:44:28;102937.00;;;6.50;89.83
39265;BME280;42646;51.910;7.724;2023-02-10T12:47:18;102941.97;;;6.59;90.04
39265;BME280;42646;51.910;7.724;2023-02-10T12:50:01;102931.38;;;6.59;89.48
39265;BME280;42646;51.910;7.724;2023-02-10T12:52:33;102927.47;;;6.69;88.85
39265;BME280;42646;51.910;7.724;2023-02-10T12:55:12;102943.22;;;6.73;88.76
39265;BME280;42646;51.910;7.724;2023-02-10T12:57:45;102935.94;;;6.79;88.78
39265;BME280;42646;51.910;7.724;2023-02-10T13:00:19;102928.69;;;6.84;88.80
39265;BME280;42646;51.910;7.724;2023-02-10T13:02:53;102921.50;;;6.88;88.25
39265;BME280;42646;51.910;7.724;2023-02-10T13:05:27;102928.44;;;6.90;87.84
39265;BME280;42646;51.910;7.724;2023-02-10T13:07:59;102928.38;;;6.92;87.50
39265;BME280;42646;51.910;7.724;2023-02-10T13:10:31;102925.56;;;6.96;86.93
39265;BME280;42646;51.910;7.724;2023-02-10T13:13:05;102933.56;;;6.95;85.75
39265;BME280;42646;51.910;7.724;2023-02-10T13:15:37;102936.31;;;6.92;86.49
39265;BME280;42646;51.910;7.724;2023-02-10T13:18:17;102928.38;;;6.92;86.83
39265;BME280;42646;51.910;7.724;2023-02-10T13:20:53;102920.22;;;6.98;86.01
39265;BME280;42646;51.910;7.724;2023-02-10T13:23:27;102922.16;;;6.93;85.70
39265;BME280;42646;51.910;7.724;2023-02-10T13:26:15;102926.78;;;6.88;86.18
39265;BME280;42646;51.910;7.724;2023-02-10T13:28:56;102917.16;;;6.85;85.96